createdAt,value
2023-03-06T00:09:06.790Z,5.97
2023-03-06T00:24:08.765Z,6.53
2023-03-06T00:39:10.598Z,5.80
2023-03-06T00:54:12.407Z,6.80
2023-03-06T01:09:24.917Z,7.47
2023-03-06T01:24:26.982Z,8.40
2023-03-06T01:39:29.212Z,6.63
2023-03-06T01:54:45.873Z,5.97
2023-03-06T02:09:48.093Z,9.13
2023-03-06T02:25:04.324Z,8.00
2023-03-06T02:40:12.453Z,8.57
2023-03-06T02:55:14.601Z,6.57
2023-03-06T03:10:19.162Z,7.23
2023-03-06T03:25:23.191Z,7.90
2023-03-06T03:40:25.409Z,6.83
2023-03-06T03:55:28.199Z,6.97
2023-03-06T04:10:30.807Z,6.77
2023-03-06T04:25:32.738Z,7.47
2023-03-06T04:40:36.330Z,8.73
2023-03-06T04:55:39.494Z,6.90
2023-03-06T05:10:44.136Z,6.30
2023-03-06T05:25:46.343Z,5.57
2023-03-06T05:40:48.986Z,4.97
2023-03-06T05:56:11.459Z,4.30
2023-03-06T06:11:16.348Z,7.03
2023-03-06T06:26:19.969Z,9.60
2023-03-06T06:56:43.717Z,6.00
2023-03-06T07:11:46.026Z,5.57
2023-03-06T07:26:48.488Z,4.03
2023-03-06T07:41:50.423Z,3.30
2023-03-06T07:56:53.283Z,3.23
2023-03-06T08:11:55.791Z,2.67
2023-03-06T08:26:57.638Z,2.50
2023-03-06T08:42:00.304Z,2.23
2023-03-06T08:57:03.311Z,2.23
2023-03-06T09:12:05.645Z,3.07
2023-03-06T09:27:07.828Z,3.00
2023-03-06T09:42:16.247Z,3.90
2023-03-06T09:57:32.344Z,3.23
2023-03-06T10:12:45.429Z,3.43
2023-03-06T10:27:54.355Z,3.23
2023-03-06T10:43:10.857Z,2.80
2023-03-06T10:58:22.546Z,4.07
2023-03-06T11:13:32.321Z,2.97
2023-03-06T11:28:40.933Z,2.33
2023-03-06T11:44:19.994Z,3.20
2023-03-06T11:59:59.849Z,3.33
2023-03-06T12:15:19.685Z,3.23
2023-03-06T12:30:27.373Z,2.97
2023-03-06T12:45:39.113Z,3.10
2023-03-06T13:01:34.471Z,3.00
2023-03-06T13:16:37.013Z,2.57
2023-03-06T13:31:41.023Z,3.80
2023-03-06T13:46:43.124Z,3.20
2023-03-06T14:02:11.846Z,4.10
2023-03-06T14:17:36.069Z,3.37
2023-03-06T14:32:40.301Z,4.23
2023-03-06T14:47:43.239Z,3.87
2023-03-06T15:02:46.786Z,3.40
2023-03-06T15:17:52.659Z,3.60
2023-03-06T15:33:18.254Z,3.00
2023-03-06T15:48:20.225Z,2.90
2023-03-06T16:03:22.113Z,3.73
2023-03-06T16:18:24.140Z,5.20
2023-03-06T16:33:26.188Z,4.73
2023-03-06T16:48:28.045Z,6.13
2023-03-06T17:03:30.368Z,5.33
2023-03-06T17:18:50.031Z,4.90
2023-03-06T17:33:56.732Z,6.77
2023-03-06T17:48:58.724Z,6.43
2023-03-06T18:04:02.408Z,6.37
2023-03-06T18:19:04.732Z,11.23
2023-03-06T18:34:13.545Z,5.67
2023-03-06T18:49:16.367Z,6.60
2023-03-06T19:04:18.405Z,8.27
2023-03-06T19:19:20.976Z,8.93
2023-03-06T19:34:26.889Z,6.33
2023-03-06T19:49:29.497Z,8.70
2023-03-06T20:04:34.981Z,6.77
2023-03-06T20:19:37.307Z,5.63
2023-03-06T20:34:40.051Z,6.93
2023-03-06T20:49:41.848Z,7.27
2023-03-06T21:04:46.342Z,6.43
2023-03-06T21:19:48.751Z,5.57
2023-03-06T21:34:50.633Z,5.40
2023-03-06T21:49:52.483Z,4.90
2023-03-06T22:04:58.258Z,4.63
2023-03-06T22:20:04.753Z,4.63
2023-03-06T22:35:06.949Z,4.47
2023-03-06T22:50:09.619Z,5.83
2023-03-06T23:05:12.256Z,4.87
2023-03-06T23:20:14.954Z,4.43
2023-03-06T23:35:16.810Z,4.73
2023-03-06T23:50:19.375Z,5.10
